sensor_id;sensor_type;location;lat;lon;timestamp;temperature;humidity
11152;DHT22;5630;49.342;10.802;2022-09-21T00:10:53;7.10;99.90
11152;DHT22;5630;49.342;10.802;2022-09-21T00:13:18;6.80;99.90
11152;DHT22;5630;49.342;10.802;2022-09-21T00:15:45;6.80;99.90
11152;DHT22;5630;49.342;10.802;2022-09-21T00:18:10;6.80;99.90
11152;DHT22;5630;49.342;10.802;2022-09-21T00:20:40;6.80;99.90
11152;DHT22;5630;49.342;10.802;2022-09-21T00:23:08;6.70;99.90
11152;DHT22;5630;49.342;10.802;2022-09-21T00:25:33;6.70;99.90
11152;DHT22;5630;49.342;10.802;2022-09-21T00:27:59;6.70;99.90
11152;DHT22;5630;49.342;10.802;2022-09-21T00:30:24;6.70;99.90
11152;DHT22;5630;49.342;10.802;2022-09-21T00:32:52;6.70;99.90
11152;DHT22;5630;49.342;10.802;2022-09-21T00:35:17;6.60;99.90
11152;DHT22;5630;49.342;10.802;2022-09-21T00:37:43;6.60;99.90
11152;DHT22;5630;49.342;10.802;2022-09-21T00:40:09;6.60;99.90
11152;DHT22;5630;49.342;10.802;2022-09-21T00:42:35;6.60;99.90
11152;DHT22;5630;49.342;10.802;2022-09-21T00:45:01;6.60;99.90
11152;DHT22;5630;49.342;10.802;2022-09-21T00:47:30;6.60;99.90
11152;DHT22;5630;49.342;10.802;2022-09-21T00:49:59;6.50;99.90
11152;DHT22;5630;49.342;10.802;2022-09-21T00:52:29;6.50;99.90
11152;DHT22;5630;49.342;10.802;2022-09-21T00:55:05;6.50;99.90
11152;DHT22;5630;49.342;10.802;2022-09-21T00:57:34;6.50;99.90
11152;DHT22;5630;49.342;10.802;2022-09-21T01:00:03;6.40;99.90
11152;DHT22;5630;49.342;10.802;2022-09-21T01:02:29;6.50;99.90
11152;DHT22;5630;49.342;10.802;2022-09-21T01:04:55;6.40;99.90
11152;DHT22;5630;49.342;10.802;2022-09-21T01:07:26;6.40;99.90
11152;DHT22;5630;49.342;10.802;2022-09-21T01:09:55;6.40;99.90
11152;DHT22;5630;49.342;10.802;2022-09-21T01:12:34;6.30;99.90
11152;DHT22;5630;49.342;10.802;2022-09-21T01:15:49;6.30;99.90
11152;DHT22;5630;49.342;10.802;2022-09-21T01:18:40;6.30;99.90
11152;DHT22;5630;49.342;10.802;2022-09-21T01:21:23;6.30;99.90
11152;DHT22;5630;49.342;10.802;2022-09-21T01:24:35;6.30;99.90
11152;DHT22;5630;49.342;10.802;2022-09-21T01:27:06;6.30;99.90
11152;DHT22;5630;49.342;10.802;2022-09-21T01:30:00;6.30;99.90
11152;DHT22;5630;49.342;10.802;2022-09-21T01:35:31;6.20;99.90
11152;DHT22;5630;49.342;10.802;2022-09-21T01:38:10;6.20;99.90
11152;DHT22;5630;49.342;10.802;2022-09-21T01:40:43;6.20;99.90
11152;DHT22;5630;49.342;10.802;2022-09-21T01:43:12;6.20;99.90
11152;DHT22;5630;49.342;10.802;2022-09-21T01:45:44;6.20;99.90
11152;DHT22;5630;49.342;10.802;2022-09-21T01:48:11;6.20;99.90
11152;DHT22;5630;49.342;10.802;2022-09-21T01:50:43;6.20;99.90
11152;DHT22;5630;49.342;10.802;2022-09-21T01:53:20;6.10;99.90
11152;DHT22;5630;49.342;10.802;2022-09-21T01:55:50;6.10;99.90
11152;DHT22;5630;49.342;10.802;2022-09-21T01:58:30;6.10;99.90
11152;DHT22;5630;49.342;10.802;2022-09-21T02:00:58;6.10;99.90
11152;DHT22;5630;49.342;10.802;2022-09-21T02:03:28;6.10;99.90
11152;DHT22;5630;49.342;10.802;2022-09-21T02:05:57;6.10;99.90
11152;DHT22;5630;49.342;10.802;2022-09-21T02:08:23;6.00;99.90
11152;DHT22;5630;49.342;10.802;2022-09-21T02:10:53;6.00;99.90
11152;DHT22;5630;49.342;10.802;2022-09-21T02:13:21;6.00;99.90
11152;DHT22;5630;49.342;10.802;2022-09-21T02:31:45;6.00;99.90
11152;DHT22;5630;49.342;10.802;2022-09-21T02:37:24;5.90;99.90
11152;DHT22;5630;49.342;10.802;2022-09-21T02:42:54;5.90;99.90
11152;DHT22;5630;49.342;10.802;2022-09-21T02:45:24;5.90;99.90
11152;DHT22;5630;49.342;10.802;2022-09-21T02:47:57;5.90;99.90
11152;DHT22;5630;49.342;10.802;2022-09-21T02:50:44;5.80;99.90
11152;DHT22;5630;49.342;10.802;2022-09-21T02:53:12;5.80;99.90
11152;DHT22;5630;49.342;10.802;2022-09-21T02:55:40;5.80;99.90
11152;DHT22;5630;49.342;10.802;2022-09-21T02:58:09;5.80;99.90
11152;DHT22;5630;49.342;10.802;2022-09-21T03:00:37;5.80;99.90
11152;DHT22;5630;49.342;10.802;2022-09-21T03:03:20;5.70;99.90
11152;DHT22;5630;49.342;10.802;2022-09-21T03:05:48;5.70;99.90
11152;DHT22;5630;49.342;10.802;2022-09-21T03:08:16;5.70;99.90
11152;DHT22;5630;49.342;10.802;2022-09-21T03:10:42;5.70;99.90
11152;DHT22;5630;49.342;10.802;2022-09-21T03:13:08;5.60;99.90
11152;DHT22;5630;49.342;10.802;2022-09-21T03:15:38;5.60;99.90
11152;DHT22;5630;49.342;10.802;2022-09-21T03:18:06;5.70;99.90
11152;DHT22;5630;49.342;10.802;2022-09-21T03:20:34;5.60;99.90
11152;DHT22;5630;49.342;10.802;2022-09-21T03:23:00;5.60;99.90
11152;DHT22;5630;49.342;10.802;2022-09-21T03:25:27;5.60;99.90
11152;DHT22;5630;49.342;10.802;2022-09-21T03:27:52;5.60;99.90
11152;DHT22;5630;49.342;10.802;2022-09-21T03:30:22;5.60;99.90
11152;DHT22;5630;49.342;10.802;2022-09-21T03:32:51;5.60;99.90
11152;DHT22;5630;49.342;10.802;2022-09-21T03:35:18;5.60;99.90
11152;DHT22;5630;49.342;10.802;2022-09-21T03:37:46;5.60;99.90
11152;DHT22;5630;49.342;10.802;2022-09-21T03:40:12;5.50;99.90
11152;DHT22;5630;49.342;10.802;2022-09-21T03:42:39;5.50;99.90
11152;DHT22;5630;49.342;10.802;2022-09-21T03:45:06;5.60;99.90
11152;DHT22;5630;49.342;10.802;2022-09-21T03:47:32;5.60;99.90
11152;DHT22;5630;49.342;10.802;2022-09-21T03:49:58;5.60;99.90
11152;DHT22;5630;49.342;10.802;2022-09-21T03:52:24;5.50;99.90
11152;DHT22;5630;49.342;10.802;2022-09-21T03:54:49;5.50;99.90
11152;DHT22;5630;49.342;10.802;2022-09-21T03:57:15;5.60;99.90
11152;DHT22;5630;49.342;10.802;2022-09-21T03:59:40;5.60;99.90
11152;DHT22;5630;49.342;10.802;2022-09-21T04:02:06;5.60;99.90
11152;DHT22;5630;49.342;10.802;2022-09-21T04:04:32;5.60;99.90
11152;DHT22;5630;49.342;10.802;2022-09-21T04:06:58;5.50;99.90
11152;DHT22;5630;49.342;10.802;2022-09-21T04:09:24;5.50;99.90
11152;DHT22;5630;49.342;10.802;2022-09-21T04:11:50;5.50;99.90
11152;DHT22;5630;49.342;10.802;2022-09-21T04:14:16;5.40;99.90
11152;DHT22;5630;49.342;10.802;2022-09-21T04:19:07;5.30;99.90
11152;DHT22;5630;49.342;10.802;2022-09-21T04:21:33;5.30;99.90
11152;DHT22;5630;49.342;10.802;2022-09-21T04:23:59;5.30;99.90
11152;DHT22;5630;49.342;10.802;2022-09-21T04:26:28;5.30;99.90
11152;DHT22;5630;49.342;10.802;2022-09-21T04:28:55;5.30;99.90
11152;DHT22;5630;49.342;10.802;2022-09-21T04:31:22;5.30;99.90
11152;DHT22;5630;49.342;10.802;2022-09-21T04:33:49;5.30;99.90
11152;DHT22;5630;49.342;10.802;2022-09-21T04:36:16;5.40;99.90
11152;DHT22;5630;49.342;10.802;2022-09-21T04:38:43;5.40;99.90
11152;DHT22;5630;49.342;10.802;2022-09-21T04:41:09;5.40;99.90
11152;DHT22;5630;49.342;10.802;2022-09-21T04:43:34;5.50;99.90
11152;DHT22;5630;49.342;10.802;2022-09-21T04:46:13;5.50;99.90
11152;DHT22;5630;49.342;10.802;2022-09-21T04:48:39;5.50;99.90
11152;DHT22;5630;49.342;10.802;2022-09-21T04:51:06;5.50;99.90
11152;DHT22;5630;49.342;10.802;2022-09-21T04:53:36;5.60;99.90
11152;DHT22;5630;49.342;10.802;2022-09-21T04:56:03;5.60;99.90
11152;DHT22;5630;49.342;10.802;2022-09-21T04:58:30;5.60;99.90
11152;DHT22;5630;49.342;10.802;2022-09-21T05:00:56;5.60;99.90
11152;DHT22;5630;49.342;10.802;2022-09-21T05:03:23;5.60;99.90
11152;DHT22;5630;49.342;10.802;2022-09-21T05:05:52;5.60;99.90
11152;DHT22;5630;49.342;10.802;2022-09-21T05:08:18;5.60;99.90
11152;DHT22;5630;49.342;10.802;2022-09-21T05:11:09;5.60;99.90
11152;DHT22;5630;49.342;10.802;2022-09-21T05:13:35;5.60;99.90
11152;DHT22;5630;49.342;10.802;2022-09-21T05:16:01;5.70;99.90
11152;DHT22;5630;49.342;10.802;2022-09-21T05:18:27;5.60;99.90
11152;DHT22;5630;49.342;10.802;2022-09-21T05:20:58;5.60;99.90
11152;DHT22;5630;49.342;10.802;2022-09-21T05:23:24;5.60;99.90
11152;DHT22;5630;49.342;10.802;2022-09-21T05:25:50;5.80;99.90
11152;DHT22;5630;49.342;10.802;2022-09-21T05:28:17;7.90;99.90
11152;DHT22;5630;49.342;10.802;2022-09-21T05:31:02;9.10;99.90
11152;DHT22;5630;49.342;10.802;2022-09-21T05:33:29;10.00;99.90
11152;DHT22;5630;49.342;10.802;2022-09-21T05:36:26;10.50;99.90
11152;DHT22;5630;49.342;10.802;2022-09-21T05:38:55;10.80;99.90
11152;DHT22;5630;49.342;10.802;2022-09-21T05:41:21;11.10;99.90
11152;DHT22;5630;49.342;10.802;2022-09-21T05:43:47;10.70;99.90
11152;DHT22;5630;49.342;10.802;2022-09-21T05:49:44;9.30;99.90
11152;DHT22;5630;49.342;10.802;2022-09-21T05:52:40;8.80;99.90
11152;DHT22;5630;49.342;10.802;2022-09-21T06:00:25;8.30;99.90
11152;DHT22;5630;49.342;10.802;2022-09-21T06:03:28;8.10;99.90
11152;DHT22;5630;49.342;10.802;2022-09-21T06:05:55;7.70;99.90
11152;DHT22;5630;49.342;10.802;2022-09-21T06:08:21;7.40;99.90
11152;DHT22;5630;49.342;10.802;2022-09-21T06:10:47;7.20;99.90
11152;DHT22;5630;49.342;10.802;2022-09-21T06:13:13;7.00;99.90
11152;DHT22;5630;49.342;10.802;2022-09-21T06:15:38;6.80;99.90
11152;DHT22;5630;49.342;10.802;2022-09-21T06:18:05;6.70;99.90
11152;DHT22;5630;49.342;10.802;2022-09-21T06:20:31;7.70;99.90
11152;DHT22;5630;49.342;10.802;2022-09-21T06:23:01;8.00;99.90
11152;DHT22;5630;49.342;10.802;2022-09-21T06:25:26;8.20;99.90
11152;DHT22;5630;49.342;10.802;2022-09-21T06:27:52;7.90;99.90
11152;DHT22;5630;49.342;10.802;2022-09-21T06:30:17;7.90;99.90
11152;DHT22;5630;49.342;10.802;2022-09-21T06:32:43;7.70;99.90
11152;DHT22;5630;49.342;10.802;2022-09-21T06:35:08;7.50;99.90
11152;DHT22;5630;49.342;10.802;2022-09-21T06:37:34;7.40;99.90
11152;DHT22;5630;49.342;10.802;2022-09-21T06:40:00;7.90;99.90
11152;DHT22;5630;49.342;10.802;2022-09-21T06:42:26;7.70;99.90
11152;DHT22;5630;49.342;10.802;2022-09-21T06:44:52;7.60;99.90
11152;DHT22;5630;49.342;10.802;2022-09-21T06:47:17;7.50;99.90
11152;DHT22;5630;49.342;10.802;2022-09-21T06:49:43;7.40;99.90
11152;DHT22;5630;49.342;10.802;2022-09-21T06:52:08;7.30;99.90
11152;DHT22;5630;49.342;10.802;2022-09-21T06:54:34;7.20;99.90
11152;DHT22;5630;49.342;10.802;2022-09-21T06:57:01;7.10;99.90
11152;DHT22;5630;49.342;10.802;2022-09-21T06:59:27;7.20;99.90
11152;DHT22;5630;49.342;10.802;2022-09-21T07:01:53;7.20;99.90
11152;DHT22;5630;49.342;10.802;2022-09-21T07:04:22;7.20;99.90
11152;DHT22;5630;49.342;10.802;2022-09-21T07:06:49;7.20;99.90
11152;DHT22;5630;49.342;10.802;2022-09-21T07:09:15;7.30;99.90
11152;DHT22;5630;49.342;10.802;2022-09-21T07:11:40;7.30;99.90
11152;DHT22;5630;49.342;10.802;2022-09-21T07:14:06;7.30;99.90
11152;DHT22;5630;49.342;10.802;2022-09-21T07:16:32;7.30;99.90
11152;DHT22;5630;49.342;10.802;2022-09-21T07:18:58;7.30;99.90
11152;DHT22;5630;49.342;10.802;2022-09-21T07:21:23;7.40;99.90
11152;DHT22;5630;49.342;10.802;2022-09-21T07:23:49;7.40;99.90
11152;DHT22;5630;49.342;10.802;2022-09-21T07:26:14;7.50;99.90
11152;DHT22;5630;49.342;10.802;2022-09-21T07:28:40;8.30;99.90
11152;DHT22;5630;49.342;10.802;2022-09-21T07:31:08;8.20;99.90
11152;DHT22;5630;49.342;10.802;2022-09-21T07:33:34;8.20;99.90
11152;DHT22;5630;49.342;10.802;2022-09-21T07:36:00;8.10;99.90
11152;DHT22;5630;49.342;10.802;2022-09-21T07:38:28;8.00;99.90
11152;DHT22;5630;49.342;10.802;2022-09-21T07:40:53;8.00;99.90
11152;DHT22;5630;49.342;10.802;2022-09-21T07:43:19;8.00;99.90
11152;DHT22;5630;49.342;10.802;2022-09-21T07:45:51;7.90;99.90
11152;DHT22;5630;49.342;10.802;2022-09-21T07:48:18;7.90;99.90
11152;DHT22;5630;49.342;10.802;2022-09-21T07:50:43;7.80;99.90
11152;DHT22;5630;49.342;10.802;2022-09-21T07:53:09;7.70;99.90
11152;DHT22;5630;49.342;10.802;2022-09-21T07:55:34;7.80;99.90
11152;DHT22;5630;49.342;10.802;2022-09-21T07:58:00;7.80;99.90
11152;DHT22;5630;49.342;10.802;2022-09-21T08:00:44;8.70;99.90
11152;DHT22;5630;49.342;10.802;2022-09-21T08:03:10;9.50;99.90
11152;DHT22;5630;49.342;10.802;2022-09-21T08:05:36;9.40;99.90
11152;DHT22;5630;49.342;10.802;2022-09-21T08:08:01;9.20;99.90
11152;DHT22;5630;49.342;10.802;2022-09-21T08:10:27;9.10;99.90
11152;DHT22;5630;49.342;10.802;2022-09-21T08:12:53;8.90;99.90
11152;DHT22;5630;49.342;10.802;2022-09-21T08:15:19;8.80;99.90
11152;DHT22;5630;49.342;10.802;2022-09-21T08:17:45;8.70;99.90
11152;DHT22;5630;49.342;10.802;2022-09-21T08:20:10;8.70;99.90
11152;DHT22;5630;49.342;10.802;2022-09-21T08:22:36;8.70;99.90
11152;DHT22;5630;49.342;10.802;2022-09-21T08:25:02;8.80;99.90
11152;DHT22;5630;49.342;10.802;2022-09-21T08:27:29;8.80;99.90
11152;DHT22;5630;49.342;10.802;2022-09-21T08:29:54;8.90;99.90
11152;DHT22;5630;49.342;10.802;2022-09-21T08:32:20;9.10;99.90
11152;DHT22;5630;49.342;10.802;2022-09-21T08:34:45;9.10;99.90
11152;DHT22;5630;49.342;10.802;2022-09-21T08:37:11;9.20;99.90
11152;DHT22;5630;49.342;10.802;2022-09-21T08:39:37;9.30;99.90
11152;DHT22;5630;49.342;10.802;2022-09-21T08:44:46;9.50;99.90
11152;DHT22;5630;49.342;10.802;2022-09-21T08:47:17;9.60;99.90
11152;DHT22;5630;49.342;10.802;2022-09-21T08:49:48;9.80;99.90
11152;DHT22;5630;49.342;10.802;2022-09-21T08:52:16;9.80;99.90
11152;DHT22;5630;49.342;10.802;2022-09-21T08:54:51;9.90;99.90
11152;DHT22;5630;49.342;10.802;2022-09-21T08:57:19;9.90;99.90
11152;DHT22;5630;49.342;10.802;2022-09-21T08:59:47;10.00;99.90
11152;DHT22;5630;49.342;10.802;2022-09-21T09:02:45;10.20;99.90
11152;DHT22;5630;49.342;10.802;2022-09-21T09:16:40;11.80;99.90
11152;DHT22;5630;49.342;10.802;2022-09-21T09:19:28;12.10;99.90
11152;DHT22;5630;49.342;10.802;2022-09-21T09:21:56;12.40;99.90
11152;DHT22;5630;49.342;10.802;2022-09-21T09:24:44;12.60;99.90
11152;DHT22;5630;49.342;10.802;2022-09-21T09:27:27;13.00;99.90
11152;DHT22;5630;49.342;10.802;2022-09-21T09:30:25;13.20;99.90
11152;DHT22;5630;49.342;10.802;2022-09-21T09:33:04;13.50;99.90
11152;DHT22;5630;49.342;10.802;2022-09-21T09:35:45;13.80;99.90
11152;DHT22;5630;49.342;10.802;2022-09-21T09:49:49;15.60;99.90
11152;DHT22;5630;49.342;10.802;2022-09-21T09:52:18;16.10;99.90
11152;DHT22;5630;49.342;10.802;2022-09-21T09:57:10;16.60;99.90
11152;DHT22;5630;49.342;10.802;2022-09-21T09:59:47;16.90;99.90
11152;DHT22;5630;49.342;10.802;2022-09-21T10:02:25;17.30;99.90
11152;DHT22;5630;49.342;10.802;2022-09-21T10:10:20;17.70;99.90
11152;DHT22;5630;49.342;10.802;2022-09-21T10:12:47;17.60;99.90
11152;DHT22;5630;49.342;10.802;2022-09-21T10:15:15;17.70;99.90
11152;DHT22;5630;49.342;10.802;2022-09-21T10:17:44;17.80;99.90
11152;DHT22;5630;49.342;10.802;2022-09-21T10:20:15;17.80;99.90
11152;DHT22;5630;49.342;10.802;2022-09-21T10:22:46;17.90;99.90
11152;DHT22;5630;49.342;10.802;2022-09-21T10:25:17;17.90;99.90
11152;DHT22;5630;49.342;10.802;2022-09-21T10:27:46;17.90;99.90
11152;DHT22;5630;49.342;10.802;2022-09-21T10:30:34;17.90;99.90
11152;DHT22;5630;49.342;10.802;2022-09-21T10:33:01;18.00;99.90
11152;DHT22;5630;49.342;10.802;2022-09-21T10:35:26;18.00;99.90
11152;DHT22;5630;49.342;10.802;2022-09-21T10:38:10;18.00;99.90
11152;DHT22;5630;49.342;10.802;2022-09-21T10:40:37;18.30;99.90
11152;DHT22;5630;49.342;10.802;2022-09-21T10:43:03;18.40;99.90
11152;DHT22;5630;49.342;10.802;2022-09-21T10:45:31;18.40;99.90
11152;DHT22;5630;49.342;10.802;2022-09-21T10:50:37;18.10;99.90
11152;DHT22;5630;49.342;10.802;2022-09-21T10:53:12;18.00;99.90
11152;DHT22;5630;49.342;10.802;2022-09-21T10:55:54;17.90;99.90
11152;DHT22;5630;49.342;10.802;2022-09-21T10:58:21;18.00;99.90
11152;DHT22;5630;49.342;10.802;2022-09-21T11:00:48;18.00;99.90
11152;DHT22;5630;49.342;10.802;2022-09-21T11:06:15;17.90;99.90
11152;DHT22;5630;49.342;10.802;2022-09-21T11:09:04;18.10;99.90
11152;DHT22;5630;49.342;10.802;2022-09-21T11:11:49;18.40;99.90
11152;DHT22;5630;49.342;10.802;2022-09-21T11:14:31;18.50;99.90
11152;DHT22;5630;49.342;10.802;2022-09-21T11:22:13;18.80;99.90
11152;DHT22;5630;49.342;10.802;2022-09-21T11:24:53;18.80;99.90
11152;DHT22;5630;49.342;10.802;2022-09-21T11:27:33;18.60;99.90
11152;DHT22;5630;49.342;10.802;2022-09-21T11:30:11;18.80;99.90
11152;DHT22;5630;49.342;10.802;2022-09-21T11:32:59;18.60;99.90
11152;DHT22;5630;49.342;10.802;2022-09-21T11:35:34;18.50;99.90
11152;DHT22;5630;49.342;10.802;2022-09-21T11:38:12;18.50;99.90
11152;DHT22;5630;49.342;10.802;2022-09-21T11:44:27;18.40;99.90
11152;DHT22;5630;49.342;10.802;2022-09-21T11:53:14;18.60;99.90
11152;DHT22;5630;49.342;10.802;2022-09-21T11:55:22;18.50;99.90
11152;DHT22;5630;49.342;10.802;2022-09-21T12:00:47;18.30;99.90
11152;DHT22;5630;49.342;10.802;2022-09-21T12:13:58;18.70;99.90
11152;DHT22;5630;49.342;10.802;2022-09-21T12:19:34;18.30;99.90
11152;DHT22;5630;49.342;10.802;2022-09-21T12:22:09;18.40;99.90
11152;DHT22;5630;49.342;10.802;2022-09-21T12:24:53;18.40;99.90
11152;DHT22;5630;49.342;10.802;2022-09-21T12:27:37;18.20;99.90
11152;DHT22;5630;49.342;10.802;2022-09-21T12:30:14;18.20;99.90
11152;DHT22;5630;49.342;10.802;2022-09-21T12:32:43;18.30;99.90
11152;DHT22;5630;49.342;10.802;2022-09-21T12:42:49;17.70;99.90
11152;DHT22;5630;49.342;10.802;2022-09-21T12:45:31;17.80;99.90
11152;DHT22;5630;49.342;10.802;2022-09-21T12:48:22;17.90;99.90
11152;DHT22;5630;49.342;10.802;2022-09-21T12:50:54;18.20;99.90
11152;DHT22;5630;49.342;10.802;2022-09-21T14:20:23;18.30;99.90
11152;DHT22;5630;49.342;10.802;2022-09-21T14:30:53;15.60;99.90
11152;DHT22;5630;49.342;10.802;2022-09-21T14:33:32;15.50;99.90
11152;DHT22;5630;49.342;10.802;2022-09-21T14:36:04;15.60;99.90
11152;DHT22;5630;49.342;10.802;2022-09-21T14:38:44;15.60;99.90
11152;DHT22;5630;49.342;10.802;2022-09-21T14:41:16;15.60;99.90
11152;DHT22;5630;49.342;10.802;2022-09-21T14:43:49;15.60;99.90
11152;DHT22;5630;49.342;10.802;2022-09-21T14:49:37;15.80;99.90
11152;DHT22;5630;49.342;10.802;2022-09-21T15:02:47;15.60;99.90
11152;DHT22;5630;49.342;10.802;2022-09-21T15:05:36;15.50;99.90
11152;DHT22;5630;49.342;10.802;2022-09-21T15:22:17;15.10;99.90
11152;DHT22;5630;49.342;10.802;2022-09-21T15:24:56;14.90;99.90
11152;DHT22;5630;49.342;10.802;2022-09-21T15:27:27;14.90;99.90
11152;DHT22;5630;49.342;10.802;2022-09-21T15:29:58;14.80;99.90
11152;DHT22;5630;49.342;10.802;2022-09-21T15:32:42;14.70;99.90
11152;DHT22;5630;49.342;10.802;2022-09-21T15:35:17;14.70;99.90
11152;DHT22;5630;49.342;10.802;2022-09-21T15:37:43;14.60;99.90
11152;DHT22;5630;49.342;10.802;2022-09-21T15:45:50;14.50;99.90
11152;DHT22;5630;49.342;10.802;2022-09-21T15:48:17;14.50;99.90
11152;DHT22;5630;49.342;10.802;2022-09-21T15:50:46;14.40;99.90
11152;DHT22;5630;49.342;10.802;2022-09-21T15:53:25;14.40;99.90
11152;DHT22;5630;49.342;10.802;2022-09-21T15:55:53;14.30;99.90
11152;DHT22;5630;49.342;10.802;2022-09-21T15:58:33;14.30;99.90
11152;DHT22;5630;49.342;10.802;2022-09-21T16:01:16;14.30;99.90
11152;DHT22;5630;49.342;10.802;2022-09-21T16:03:46;14.20;99.90
11152;DHT22;5630;49.342;10.802;2022-09-21T16:06:25;14.30;99.90
11152;DHT22;5630;49.342;10.802;2022-09-21T16:08:51;14.40;99.90
11152;DHT22;5630;49.342;10.802;2022-09-21T16:14:14;14.40;99.90
11152;DHT22;5630;49.342;10.802;2022-09-21T16:22:38;14.10;99.90
11152;DHT22;5630;49.342;10.802;2022-09-21T16:25:34;14.10;99.90
11152;DHT22;5630;49.342;10.802;2022-09-21T16:33:43;13.90;99.90
11152;DHT22;5630;49.342;10.802;2022-09-21T16:38:50;13.70;99.90
11152;DHT22;5630;49.342;10.802;2022-09-21T16:41:18;13.70;99.90
11152;DHT22;5630;49.342;10.802;2022-09-21T16:43:45;13.70;99.90
11152;DHT22;5630;49.342;10.802;2022-09-21T16:46:13;13.60;99.90
11152;DHT22;5630;49.342;10.802;2022-09-21T16:48:39;13.60;99.90
11152;DHT22;5630;49.342;10.802;2022-09-21T16:51:13;13.60;99.90
11152;DHT22;5630;49.342;10.802;2022-09-21T16:53:39;13.50;99.90
11152;DHT22;5630;49.342;10.802;2022-09-21T16:58:35;13.40;99.90
11152;DHT22;5630;49.342;10.802;2022-09-21T18:10:23;13.30;99.90
11152;DHT22;5630;49.342;10.802;2022-09-21T18:12:57;11.50;99.90
11152;DHT22;5630;49.342;10.802;2022-09-21T18:42:43;10.60;99.90
11152;DHT22;5630;49.342;10.802;2022-09-21T18:45:35;10.60;99.90
11152;DHT22;5630;49.342;10.802;2022-09-21T18:51:22;10.50;99.90
11152;DHT22;5630;49.342;10.802;2022-09-21T18:53:50;10.40;99.90
11152;DHT22;5630;49.342;10.802;2022-09-21T19:16:30;10.40;99.90
11152;DHT22;5630;49.342;10.802;2022-09-21T19:22:14;10.20;99.90
11152;DHT22;5630;49.342;10.802;2022-09-21T19:24:59;10.10;99.90
11152;DHT22;5630;49.342;10.802;2022-09-21T19:27:47;10.10;99.90
11152;DHT22;5630;49.342;10.802;2022-09-21T19:30:15;10.10;99.90
11152;DHT22;5630;49.342;10.802;2022-09-21T19:32:49;10.00;99.90
11152;DHT22;5630;49.342;10.802;2022-09-21T19:35:29;10.00;99.90
11152;DHT22;5630;49.342;10.802;2022-09-21T19:37:57;10.00;99.90
11152;DHT22;5630;49.342;10.802;2022-09-21T19:40:26;9.90;99.90
11152;DHT22;5630;49.342;10.802;2022-09-21T19:48:15;9.80;99.90
11152;DHT22;5630;49.342;10.802;2022-09-21T19:50:52;9.80;99.90
11152;DHT22;5630;49.342;10.802;2022-09-21T19:53:20;9.70;99.90
11152;DHT22;5630;49.342;10.802;2022-09-21T19:58:53;9.70;99.90
11152;DHT22;5630;49.342;10.802;2022-09-21T20:01:39;9.60;99.90
11152;DHT22;5630;49.342;10.802;2022-09-21T20:04:11;9.60;99.90
11152;DHT22;5630;49.342;10.802;2022-09-21T20:06:49;9.50;99.90
11152;DHT22;5630;49.342;10.802;2022-09-21T20:09:24;9.40;99.90
11152;DHT22;5630;49.342;10.802;2022-09-21T20:12:07;9.40;99.90
11152;DHT22;5630;49.342;10.802;2022-09-21T20:14:42;9.30;99.90
11152;DHT22;5630;49.342;10.802;2022-09-21T20:17:42;9.30;99.90
11152;DHT22;5630;49.342;10.802;2022-09-21T20:20:14;9.30;99.90
11152;DHT22;5630;49.342;10.802;2022-09-21T20:22:42;9.30;99.90
11152;DHT22;5630;49.342;10.802;2022-09-21T20:27:55;9.20;99.90
11152;DHT22;5630;49.342;10.802;2022-09-21T20:30:23;9.20;99.90
11152;DHT22;5630;49.342;10.802;2022-09-21T20:32:59;9.10;99.90
11152;DHT22;5630;49.342;10.802;2022-09-21T20:35:29;9.10;99.90
11152;DHT22;5630;49.342;10.802;2022-09-21T20:37:55;9.10;99.90
11152;DHT22;5630;49.342;10.802;2022-09-21T20:40:22;9.10;99.90
11152;DHT22;5630;49.342;10.802;2022-09-21T20:42:54;9.00;99.90
11152;DHT22;5630;49.342;10.802;2022-09-21T20:45:20;9.00;99.90
11152;DHT22;5630;49.342;10.802;2022-09-21T20:47:53;9.00;99.90
11152;DHT22;5630;49.342;10.802;2022-09-21T20:50:20;9.00;99.90
11152;DHT22;5630;49.342;10.802;2022-09-21T20:52:46;8.90;99.90
11152;DHT22;5630;49.342;10.802;2022-09-21T20:55:16;8.90;99.90
11152;DHT22;5630;49.342;10.802;2022-09-21T20:57:44;8.90;99.90
11152;DHT22;5630;49.342;10.802;2022-09-21T21:00:12;8.90;99.90
11152;DHT22;5630;49.342;10.802;2022-09-21T21:02:39;8.80;99.90
11152;DHT22;5630;49.342;10.802;2022-09-21T21:05:05;8.80;99.90
11152;DHT22;5630;49.342;10.802;2022-09-21T21:07:32;8.80;99.90
11152;DHT22;5630;49.342;10.802;2022-09-21T21:09:59;8.70;99.90
11152;DHT22;5630;49.342;10.802;2022-09-21T21:12:25;8.60;99.90
11152;DHT22;5630;49.342;10.802;2022-09-21T21:14:51;8.70;99.90
11152;DHT22;5630;49.342;10.802;2022-09-21T21:17:16;8.60;99.90
11152;DHT22;5630;49.342;10.802;2022-09-21T21:19:43;8.50;99.90
11152;DHT22;5630;49.342;10.802;2022-09-21T21:22:10;8.50;99.90
11152;DHT22;5630;49.342;10.802;2022-09-21T21:24:36;8.50;99.90
11152;DHT22;5630;49.342;10.802;2022-09-21T21:27:12;8.40;99.90
11152;DHT22;5630;49.342;10.802;2022-09-21T21:29:39;8.40;99.90
11152;DHT22;5630;49.342;10.802;2022-09-21T21:32:04;8.40;99.90
11152;DHT22;5630;49.342;10.802;2022-09-21T21:34:30;8.30;99.90
11152;DHT22;5630;49.342;10.802;2022-09-21T21:36:56;8.30;99.90
11152;DHT22;5630;49.342;10.802;2022-09-21T21:39:21;8.20;99.90
11152;DHT22;5630;49.342;10.802;2022-09-21T21:41:47;8.20;99.90
11152;DHT22;5630;49.342;10.802;2022-09-21T21:46:40;8.20;99.90
11152;DHT22;5630;49.342;10.802;2022-09-21T21:49:05;8.20;99.90
11152;DHT22;5630;49.342;10.802;2022-09-21T21:53:57;8.10;99.90
11152;DHT22;5630;49.342;10.802;2022-09-21T21:56:23;8.00;99.90
11152;DHT22;5630;49.342;10.802;2022-09-21T21:58:52;8.00;99.90
11152;DHT22;5630;49.342;10.802;2022-09-21T22:01:23;8.00;99.90
11152;DHT22;5630;49.342;10.802;2022-09-21T22:04:00;8.00;99.90
11152;DHT22;5630;49.342;10.802;2022-09-21T22:06:28;8.00;99.90
11152;DHT22;5630;49.342;10.802;2022-09-21T22:08:54;8.00;99.90
11152;DHT22;5630;49.342;10.802;2022-09-21T22:11:20;8.00;99.90
11152;DHT22;5630;49.342;10.802;2022-09-21T22:13:47;7.90;99.90
11152;DHT22;5630;49.342;10.802;2022-09-21T22:23:36;7.90;99.90
11152;DHT22;5630;49.342;10.802;2022-09-21T22:26:13;7.90;99.90
11152;DHT22;5630;49.342;10.802;2022-09-21T22:28:41;7.90;99.90
11152;DHT22;5630;49.342;10.802;2022-09-21T22:31:08;7.90;99.90
11152;DHT22;5630;49.342;10.802;2022-09-21T22:33:34;7.80;99.90
11152;DHT22;5630;49.342;10.802;2022-09-21T22:36:11;7.80;99.90
11152;DHT22;5630;49.342;10.802;2022-09-21T22:38:38;7.80;99.90
11152;DHT22;5630;49.342;10.802;2022-09-21T22:41:05;7.80;99.90
11152;DHT22;5630;49.342;10.802;2022-09-21T22:43:31;7.80;99.90
11152;DHT22;5630;49.342;10.802;2022-09-21T22:45:57;7.80;99.90
11152;DHT22;5630;49.342;10.802;2022-09-21T22:48:23;7.80;99.90
11152;DHT22;5630;49.342;10.802;2022-09-21T22:50:48;7.80;99.90
11152;DHT22;5630;49.342;10.802;2022-09-21T22:53:14;7.80;99.90
11152;DHT22;5630;49.342;10.802;2022-09-21T22:55:39;7.70;99.90
11152;DHT22;5630;49.342;10.802;2022-09-21T22:58:05;7.70;99.90
11152;DHT22;5630;49.342;10.802;2022-09-21T23:00:30;7.70;99.90
11152;DHT22;5630;49.342;10.802;2022-09-21T23:02:56;7.60;99.90